Ashaway, Rhode Island
Current Conditions -  °F | °C
As of 8:13 PM on Monday 26 Jan 2015 (Local Time) from KWST Reporting Station
Light Snow Light Snow  
Wind Chill: 16°   Ceiling: 1100
Heat Index: 28°   Visibility: 0.75mi
Dew Point: 25°   Wind: 16mph
Humidity: 88%   Direction: 30°NNE
Pressure: 29.82"   Gusts: 26mph
Location:  41.43°N, 71.79°W
Report Text: KWST 270113Z AUTO 03014G23KT 3/4SM -SN BR OVC011 M02/M04 A2982 RMK AO2 PRESFR P0001 T10221039
Loading
Personal Weather Stations






























Interactive Weather Map New forecast layout! Learn more

10-Day Weather Forecast

Advertisements
Track Severe Weather on mobile